Main page
METAR-TAF:

METAR-TAF

Airports :

Tallahassee International Airport

Tallahassee, Florida, United States

latitude: 30-23-35N, longitude: 084-21-12W, elevation: 79 ft

Current weather observation

The report was made 52 minutes ago, at 08:53 UTC
Wind 5 mph from the North
Temperature 57°F
Humidity 94%
Pressure 30.00 in. Hg
Visibility: 10 miles
Clear sky

METAR: KTLH 240853Z AUTO 35004KT 10SM CLR 14/13 A3000 RMK AO2 SLP157 T01440128 56005

Time: 05:45 (09:45 UTC)

Forecast

The report was made 4 hours and 25 minutes ago, at 05:20 UTC
Forecast valid from 24 at 06 UTC to 25 at 06 UTC
Wind 6 mph from the North/Northeast
Visibility: 6 miles
Clear sky
From 25 at 0400 UTC
Wind 5 mph from the Northeast
Visibility: 6 miles
Scattered clouds at a height of 5000 ft

TAF: KTLH 240520Z 2406/2506 02005KT P6SM SKC FM250400 05004KT P6SM SCT050

Weather observations and forecasts of more than 4000 airports (METAR and TAF reports).

The available stations are represented by yellow and red dots on the map.

Hover mouse over dot to see the name of the station.

Then click to see weather observations and forecasts.

To change the map : click on the green buttons with a black cross to zoom in, on the green button with a dash to zoom out, or on the green arrows for adjacent maps.


METAR-TAF: